createdAt,value
2018-03-04T00:00:01.578Z,92653.30
2018-03-04T00:02:29.337Z,92649.18
2018-03-04T00:04:57.052Z,92657.91
2018-03-04T00:07:24.833Z,92658.70
2018-03-04T00:09:52.595Z,92665.38
2018-03-04T00:12:20.308Z,92673.43
2018-03-04T00:14:48.152Z,92676.98
2018-03-04T00:17:15.873Z,92673.83
2018-03-04T00:19:43.549Z,92675.41
2018-03-04T00:22:11.325Z,92676.20
2018-03-04T00:24:39.072Z,92682.09
2018-03-04T00:27:06.830Z,92681.01
2018-03-04T00:29:34.591Z,92682.08
2018-03-04T00:32:02.287Z,92688.96
2018-03-04T00:34:30.054Z,92692.10
2018-03-04T00:36:57.838Z,92695.53
2018-03-04T00:39:25.635Z,92696.80
2018-03-04T00:41:53.288Z,92694.87
2018-03-04T00:44:21.052Z,92700.77
2018-03-04T00:46:48.807Z,92695.08
2018-03-04T00:49:16.484Z,92695.36
2018-03-04T00:51:44.133Z,92697.41
2018-03-04T00:54:11.885Z,92694.95
2018-03-04T00:56:39.582Z,92693.47
2018-03-04T00:59:07.240Z,92700.75
2018-03-04T01:01:35.003Z,92695.45
2018-03-04T01:04:02.674Z,92704.79
2018-03-04T01:06:30.409Z,92707.52
2018-03-04T01:08:58.070Z,92707.23
2018-03-04T01:11:25.764Z,92706.30
2018-03-04T01:13:53.608Z,92705.45
2018-03-04T01:16:21.332Z,92708.00
2018-03-04T01:18:49.071Z,92708.39
2018-03-04T01:21:16.787Z,92707.42
2018-03-04T01:23:44.514Z,92712.23
2018-03-04T01:26:12.214Z,92716.46
2018-03-04T01:28:40.024Z,92716.57
2018-03-04T01:31:07.804Z,92713.60
2018-03-04T01:33:35.517Z,92710.36
2018-03-04T01:36:03.253Z,92704.67
2018-03-04T01:38:31.007Z,92706.22
2018-03-04T01:40:58.716Z,92701.72
2018-03-04T01:43:27.270Z,92708.42
2018-03-04T01:45:54.985Z,92705.08
2018-03-04T01:48:22.683Z,92712.20
2018-03-04T01:50:50.412Z,92713.18
2018-03-04T01:53:18.180Z,92712.08
2018-03-04T01:55:45.930Z,92710.04
2018-03-04T01:58:13.672Z,92715.84
2018-03-04T02:00:41.403Z,92719.89
2018-03-04T02:03:09.167Z,92724.59
2018-03-04T02:05:36.828Z,92730.00
2018-03-04T02:08:04.570Z,92726.09
2018-03-04T02:10:32.329Z,92727.47
2018-03-04T02:13:00.039Z,92724.02
2018-03-04T02:15:27.765Z,92727.48
2018-03-04T02:17:56.043Z,92735.83
2018-03-04T02:20:23.914Z,92737.47
2018-03-04T02:22:51.583Z,92733.61
2018-03-04T02:25:19.294Z,92733.85
2018-03-04T02:27:47.034Z,92740.72
2018-03-04T02:30:14.698Z,92741.02
2018-03-04T02:32:42.363Z,92750.06
2018-03-04T02:35:10.120Z,92740.94
2018-03-04T02:37:37.939Z,92743.38
2018-03-04T02:40:05.605Z,92749.38
2018-03-04T02:42:33.274Z,92747.50
2018-03-04T02:45:00.987Z,92743.66
2018-03-04T02:47:28.686Z,92751.55
2018-03-04T02:49:56.410Z,92748.12
2018-03-04T02:52:26.675Z,92746.95
2018-03-04T02:54:54.344Z,92749.34
2018-03-04T02:57:22.076Z,92750.09
2018-03-04T02:59:49.798Z,92757.95
2018-03-04T03:02:17.548Z,92765.14
2018-03-04T03:04:45.224Z,92765.98
2018-03-04T03:07:12.899Z,92762.98
2018-03-04T03:09:40.618Z,92773.66
2018-03-04T03:12:08.375Z,92781.67
2018-03-04T03:14:36.096Z,92788.31
2018-03-04T03:17:03.826Z,92790.87
2018-03-04T03:19:31.594Z,92792.94
2018-03-04T03:21:59.339Z,92792.17
2018-03-04T03:24:27.040Z,92792.47
2018-03-04T03:26:54.760Z,92797.47
2018-03-04T03:29:22.458Z,92800.44
2018-03-04T03:31:50.187Z,92802.05
2018-03-04T03:34:17.880Z,92801.02
2018-03-04T03:36:45.578Z,92811.03
2018-03-04T03:39:13.307Z,92815.66
2018-03-04T03:41:41.050Z,92818.41
2018-03-04T03:44:08.719Z,92825.04
2018-03-04T03:46:36.448Z,92820.72
2018-03-04T03:49:04.141Z,92826.43
2018-03-04T03:51:31.873Z,92826.03
2018-03-04T03:53:59.626Z,92829.02
2018-03-04T03:56:27.303Z,92829.42
2018-03-04T03:58:55.086Z,92831.72
2018-03-04T04:01:22.764Z,92829.92
2018-03-04T04:03:50.551Z,92830.64
2018-03-04T04:06:18.240Z,92829.85
2018-03-04T04:08:45.921Z,92833.34
2018-03-04T04:11:13.666Z,92830.61
2018-03-04T04:13:41.399Z,92832.41
2018-03-04T04:16:09.089Z,92833.40
2018-03-04T04:18:36.820Z,92831.27
2018-03-04T04:21:04.554Z,92833.70
2018-03-04T04:23:32.310Z,92835.45
2018-03-04T04:25:59.979Z,92839.48
2018-03-04T04:28:27.720Z,92832.63
2018-03-04T04:30:55.443Z,92842.66
2018-03-04T04:33:23.225Z,92844.06
2018-03-04T04:35:50.944Z,92840.02
2018-03-04T04:38:18.693Z,92851.06
2018-03-04T04:40:46.378Z,92849.48
2018-03-04T04:43:14.076Z,92846.54
2018-03-04T04:45:41.863Z,92845.75
2018-03-04T04:48:09.558Z,92844.13
2018-03-04T04:50:37.262Z,92844.10
2018-03-04T04:53:04.926Z,92836.14
2018-03-04T04:55:32.644Z,92833.52
2018-03-04T04:58:00.413Z,92825.82
2018-03-04T05:00:28.140Z,92830.45
2018-03-04T05:02:55.897Z,92826.30
2018-03-04T05:05:23.593Z,92828.50
2018-03-04T05:07:51.317Z,92835.86
2018-03-04T05:10:19.008Z,92835.49
2018-03-04T05:12:46.760Z,92836.50
2018-03-04T05:15:14.491Z,92837.78
2018-03-04T05:17:42.263Z,92835.16
2018-03-04T05:20:09.967Z,92833.28
2018-03-04T05:22:37.684Z,92832.66
2018-03-04T05:25:05.417Z,92831.73
2018-03-04T05:27:33.392Z,92838.88
2018-03-04T05:30:01.119Z,92842.30
2018-03-04T05:32:28.864Z,92838.65
2018-03-04T05:34:56.694Z,92845.29
2018-03-04T05:37:24.415Z,92844.87
2018-03-04T05:39:52.128Z,92849.52
2018-03-04T05:42:19.850Z,92848.72
2018-03-04T05:44:47.611Z,92849.63
2018-03-04T05:47:15.351Z,92854.55
2018-03-04T05:49:43.104Z,92858.34
2018-03-04T05:52:10.809Z,92855.75
2018-03-04T05:54:38.479Z,92849.69
2018-03-04T05:57:06.221Z,92844.33
2018-03-04T05:59:33.949Z,92844.59
2018-03-04T06:02:01.701Z,92840.34
2018-03-04T06:04:29.398Z,92838.83
2018-03-04T06:06:57.172Z,92842.84
2018-03-04T06:09:24.858Z,92847.77
2018-03-04T06:11:52.676Z,92851.46
2018-03-04T06:14:20.470Z,92855.87
2018-03-04T06:16:48.227Z,92858.20
2018-03-04T06:19:15.896Z,92853.08
2018-03-04T06:21:43.642Z,92855.12
2018-03-04T06:24:11.318Z,92858.80
2018-03-04T06:26:39.116Z,92858.52
2018-03-04T06:29:06.912Z,92863.67
2018-03-04T06:31:34.600Z,92866.61
2018-03-04T06:34:02.356Z,92872.49
2018-03-04T06:36:30.109Z,92867.56
2018-03-04T06:38:57.846Z,92869.00
2018-03-04T06:41:25.587Z,92878.03
2018-03-04T06:43:53.363Z,92880.10
2018-03-04T06:46:21.073Z,92876.11
2018-03-04T06:48:48.772Z,92870.09
2018-03-04T06:51:16.656Z,92880.13
2018-03-04T06:53:44.357Z,92881.24
2018-03-04T06:56:12.094Z,92882.91
2018-03-04T06:58:39.807Z,92882.30
2018-03-04T07:01:07.538Z,92877.52
2018-03-04T07:03:35.322Z,92880.36
2018-03-04T07:06:03.077Z,92880.39
2018-03-04T07:08:30.850Z,92881.07
2018-03-04T07:10:58.628Z,92881.88
2018-03-04T07:13:26.421Z,92880.93
2018-03-04T07:15:54.140Z,92886.61
2018-03-04T07:18:21.908Z,92887.06
2018-03-04T07:20:49.663Z,92886.59
2018-03-04T07:23:17.451Z,92879.64
2018-03-04T07:25:45.234Z,92885.95
2018-03-04T07:28:13.020Z,92884.19
2018-03-04T07:30:40.910Z,92882.81
2018-03-04T07:33:08.694Z,92885.25
2018-03-04T07:35:36.501Z,92882.30
2018-03-04T07:38:04.259Z,92881.90
2018-03-04T07:40:32.078Z,92888.49
2018-03-04T07:43:01.005Z,92896.17
2018-03-04T07:45:29.486Z,92899.33
2018-03-04T07:47:57.269Z,92903.63
2018-03-04T07:50:24.955Z,92901.98
2018-03-04T07:52:53.359Z,92905.45
2018-03-04T07:55:21.097Z,92905.25
2018-03-04T07:57:48.864Z,92896.97
2018-03-04T08:00:16.594Z,92907.03
2018-03-04T08:02:44.840Z,92898.96
2018-03-04T08:05:12.600Z,92900.13
2018-03-04T08:07:40.462Z,92898.30
2018-03-04T08:10:08.255Z,92891.84
2018-03-04T08:12:36.009Z,92890.02
2018-03-04T08:15:03.814Z,92888.45
2018-03-04T08:17:32.659Z,92890.11
2018-03-04T08:20:00.382Z,92879.37
2018-03-04T08:22:28.191Z,92879.33
2018-03-04T08:25:07.590Z,92879.52
2018-03-04T08:27:47.962Z,92875.58
2018-03-04T08:30:15.922Z,92869.41
2018-03-04T08:32:43.890Z,92878.19
2018-03-04T08:35:11.960Z,92869.73
2018-03-04T08:37:40.656Z,92870.92
2018-03-04T08:40:08.539Z,92859.02
2018-03-04T08:42:36.334Z,92861.86
2018-03-04T08:45:04.069Z,92850.92
2018-03-04T08:47:31.824Z,92856.95
2018-03-04T08:49:59.838Z,92848.06
2018-03-04T08:52:27.600Z,92850.40
2018-03-04T08:54:56.361Z,92850.53
2018-03-04T08:57:24.161Z,92850.02
2018-03-04T08:59:51.981Z,92852.18
2018-03-04T09:02:20.028Z,92847.06
2018-03-04T09:04:48.117Z,92854.08
2018-03-04T09:07:16.053Z,92857.34
2018-03-04T09:09:44.146Z,92862.11
2018-03-04T09:12:12.036Z,92848.94
2018-03-04T09:14:39.953Z,92850.17
2018-03-04T09:17:08.892Z,92854.83
2018-03-04T09:19:37.441Z,92843.98
2018-03-04T09:22:05.305Z,92847.43
2018-03-04T09:24:33.174Z,92837.33
2018-03-04T09:27:02.228Z,92827.95
2018-03-04T09:29:29.961Z,92827.67
2018-03-04T09:31:58.693Z,92820.03
2018-03-04T09:34:26.463Z,92820.41
2018-03-04T09:36:54.131Z,92817.56
2018-03-04T09:39:21.911Z,92815.21
2018-03-04T09:41:49.616Z,92808.31
2018-03-04T09:44:17.443Z,92819.69
2018-03-04T09:46:45.133Z,92812.68
2018-03-04T09:49:12.892Z,92817.39
2018-03-04T09:51:41.371Z,92809.78
2018-03-04T09:54:09.094Z,92801.97
2018-03-04T09:56:36.868Z,92807.67
2018-03-04T09:59:04.606Z,92802.94
2018-03-04T10:01:32.634Z,92795.61
2018-03-04T10:04:00.356Z,92790.05
2018-03-04T10:06:28.232Z,92784.31
2018-03-04T10:08:55.931Z,92781.07
2018-03-04T10:11:23.672Z,92776.04
2018-03-04T10:13:51.402Z,92778.30
2018-03-04T10:16:19.114Z,92775.55
2018-03-04T10:18:46.876Z,92781.48
2018-03-04T10:21:14.644Z,92780.38
2018-03-04T10:23:42.381Z,92778.23
2018-03-04T10:26:10.142Z,92782.03
2018-03-04T10:28:37.836Z,92778.17
2018-03-04T10:31:05.603Z,92761.80
2018-03-04T10:33:33.363Z,92761.17
2018-03-04T10:36:01.113Z,92751.45
2018-03-04T10:38:28.825Z,92745.79
2018-03-04T10:40:56.623Z,92746.89
2018-03-04T10:43:24.320Z,92742.70
2018-03-04T10:45:52.778Z,92745.08
2018-03-04T10:48:20.474Z,92748.73
2018-03-04T10:50:48.229Z,92741.84
2018-03-04T10:53:16.116Z,92734.12
2018-03-04T10:55:43.874Z,92721.59
2018-03-04T10:58:11.604Z,92715.84
2018-03-04T11:00:44.826Z,92718.41
2018-03-04T11:03:18.945Z,92710.23
2018-03-04T11:05:46.752Z,92707.53
2018-03-04T11:08:14.508Z,92701.20
2018-03-04T11:10:42.214Z,92692.39
2018-03-04T11:13:09.958Z,92692.05
2018-03-04T11:15:37.674Z,92685.63
2018-03-04T11:18:05.428Z,92688.00
2018-03-04T11:20:33.152Z,92679.80
2018-03-04T11:23:00.906Z,92687.95
2018-03-04T11:25:28.682Z,92685.59
2018-03-04T11:27:56.405Z,92675.13
2018-03-04T11:30:24.182Z,92674.60
2018-03-04T11:32:51.898Z,92679.51
2018-03-04T11:35:19.594Z,92676.05
2018-03-04T11:37:47.391Z,92671.38
2018-03-04T11:40:15.124Z,92667.80
2018-03-04T11:42:42.863Z,92661.59
2018-03-04T11:45:11.390Z,92662.90
2018-03-04T11:47:39.334Z,92655.22
2018-03-04T11:50:07.078Z,92653.56
2018-03-04T11:52:34.873Z,92649.88
2018-03-04T11:55:02.661Z,92646.78
2018-03-04T11:57:30.445Z,92645.77
2018-03-04T11:59:58.135Z,92641.16
2018-03-04T12:02:25.847Z,92641.89
2018-03-04T12:04:53.617Z,92636.17
2018-03-04T12:07:21.378Z,92632.02
2018-03-04T12:09:49.117Z,92627.98
2018-03-04T12:12:16.824Z,92624.70
2018-03-04T12:14:44.748Z,92620.29
2018-03-04T12:17:12.479Z,92624.86
2018-03-04T12:19:40.223Z,92615.77
2018-03-04T12:22:07.938Z,92619.02
2018-03-04T12:24:35.755Z,92608.01
2018-03-04T12:27:03.481Z,92599.01
2018-03-04T12:29:31.250Z,92595.17
2018-03-04T12:31:59.062Z,92590.57
2018-03-04T12:34:26.811Z,92582.66
2018-03-04T12:36:55.787Z,92577.17
2018-03-04T12:39:23.573Z,92567.38
2018-03-04T12:41:51.385Z,92563.73
2018-03-04T12:44:19.105Z,92561.84
2018-03-04T12:46:46.794Z,92558.71
2018-03-04T12:49:14.569Z,92553.41
2018-03-04T12:51:42.317Z,92551.99
2018-03-04T12:54:10.068Z,92554.63
2018-03-04T12:56:39.049Z,92544.20
2018-03-04T12:59:06.870Z,92546.02
2018-03-04T13:01:34.641Z,92543.56
2018-03-04T13:04:02.378Z,92539.96
2018-03-04T13:06:30.082Z,92538.75
2018-03-04T13:08:57.903Z,92534.66
2018-03-04T13:11:25.681Z,92530.59
2018-03-04T13:13:53.441Z,92520.73
2018-03-04T13:16:21.144Z,92523.02
2018-03-04T13:18:48.947Z,92525.14
2018-03-04T13:21:16.658Z,92520.48
2018-03-04T13:23:44.328Z,92522.03
2018-03-04T13:26:12.095Z,92515.57
2018-03-04T13:28:40.618Z,92513.89
2018-03-04T13:31:08.395Z,92521.84
2018-03-04T13:33:36.086Z,92509.78
2018-03-04T13:36:03.960Z,92507.61
2018-03-04T13:38:31.730Z,92504.44
2018-03-04T13:40:59.493Z,92508.04
2018-03-04T13:43:27.260Z,92506.05
2018-03-04T13:45:54.996Z,92500.44
2018-03-04T13:48:22.703Z,92496.02
2018-03-04T13:50:50.446Z,92485.14
2018-03-04T13:53:18.134Z,92485.41
2018-03-04T13:55:45.891Z,92492.59
2018-03-04T13:58:13.617Z,92487.08
2018-03-04T14:00:41.366Z,92474.31
2018-03-04T14:03:09.079Z,92468.03
2018-03-04T14:05:36.748Z,92469.48
2018-03-04T14:08:04.522Z,92471.91
2018-03-04T14:10:32.210Z,92472.92
2018-03-04T14:12:59.976Z,92476.70
2018-03-04T14:15:27.707Z,92481.78
2018-03-04T14:17:55.410Z,92477.87
2018-03-04T14:20:23.184Z,92479.48
2018-03-04T14:22:50.867Z,92476.09
2018-03-04T14:25:18.642Z,92474.23
2018-03-04T14:27:46.377Z,92470.73
2018-03-04T14:30:14.067Z,92463.41
2018-03-04T14:32:41.869Z,92450.02
2018-03-04T14:35:09.555Z,92458.62
2018-03-04T14:37:37.296Z,92454.08
2018-03-04T14:40:05.839Z,92456.10
2018-03-04T14:42:33.532Z,92448.70
2018-03-04T14:45:01.282Z,92452.12
2018-03-04T14:47:29.126Z,92451.61
2018-03-04T14:49:56.823Z,92444.75
2018-03-04T14:52:25.870Z,92447.83
2018-03-04T14:54:53.550Z,92440.66
2018-03-04T14:57:21.309Z,92439.30
2018-03-04T14:59:49.082Z,92444.55
2018-03-04T15:02:16.789Z,92444.86
2018-03-04T15:04:44.560Z,92443.20
2018-03-04T15:07:13.599Z,92441.28
2018-03-04T15:09:41.346Z,92443.46
2018-03-04T15:12:09.116Z,92442.55
2018-03-04T15:14:36.834Z,92446.57
2018-03-04T15:17:04.590Z,92442.13
2018-03-04T15:19:32.278Z,92448.96
2018-03-04T15:22:00.030Z,92449.79
2018-03-04T15:24:27.806Z,92451.75
2018-03-04T15:26:55.585Z,92456.46
2018-03-04T15:29:23.294Z,92463.69
2018-03-04T15:31:51.062Z,92461.03
2018-03-04T15:34:18.823Z,92457.15
2018-03-04T15:36:46.587Z,92458.78
2018-03-04T15:39:14.349Z,92456.89
2018-03-04T15:41:42.044Z,92451.01
2018-03-04T15:44:09.837Z,92456.66
2018-03-04T15:46:37.538Z,92459.62
2018-03-04T15:49:05.253Z,92465.50
2018-03-04T15:51:32.995Z,92464.28
2018-03-04T15:54:00.770Z,92466.55
2018-03-04T15:56:28.487Z,92470.04
2018-03-04T15:58:56.212Z,92470.78
2018-03-04T16:01:23.952Z,92476.91
2018-03-04T16:03:51.656Z,92469.33
2018-03-04T16:06:19.410Z,92470.02
2018-03-04T16:08:47.097Z,92473.30
2018-03-04T16:11:14.793Z,92479.05
2018-03-04T16:13:42.559Z,92472.97
2018-03-04T16:16:10.361Z,92469.52
2018-03-04T16:18:39.066Z,92474.66
2018-03-04T16:21:07.015Z,92480.63
2018-03-04T16:23:34.774Z,92486.16
2018-03-04T16:26:02.463Z,92484.81
2018-03-04T16:28:30.216Z,92479.68
2018-03-04T16:30:57.940Z,92483.80
2018-03-04T16:33:25.687Z,92487.63
2018-03-04T16:35:53.375Z,92488.19
2018-03-04T16:38:21.130Z,92483.65
2018-03-04T16:40:48.904Z,92480.49
2018-03-04T16:43:16.607Z,92486.66
2018-03-04T16:45:44.362Z,92487.91
2018-03-04T16:48:12.073Z,92486.84
2018-03-04T16:50:39.879Z,92485.48
2018-03-04T16:53:07.553Z,92491.27
2018-03-04T16:55:35.313Z,92497.59
2018-03-04T16:58:02.965Z,92499.55
2018-03-04T17:00:30.684Z,92504.30
2018-03-04T17:02:58.506Z,92508.00
2018-03-04T17:05:26.297Z,92508.60
2018-03-04T17:07:54.061Z,92505.27
2018-03-04T17:10:21.807Z,92513.21
2018-03-04T17:12:49.646Z,92509.36
2018-03-04T17:15:17.390Z,92512.96
2018-03-04T17:17:45.158Z,92510.34
2018-03-04T17:20:12.855Z,92509.05
2018-03-04T17:22:40.593Z,92520.91
2018-03-04T17:25:08.390Z,92522.52
2018-03-04T17:27:36.163Z,92524.72
2018-03-04T17:30:03.901Z,92521.42
2018-03-04T17:32:31.664Z,92521.81
2018-03-04T17:34:59.448Z,92517.99
2018-03-04T17:37:27.286Z,92525.20
2018-03-04T17:39:54.929Z,92533.08
2018-03-04T17:42:22.660Z,92541.41
2018-03-04T17:44:50.442Z,92540.80
2018-03-04T17:47:18.133Z,92539.35
2018-03-04T17:49:45.878Z,92539.42
2018-03-04T17:52:13.653Z,92540.60
2018-03-04T17:54:41.491Z,92547.84
2018-03-04T17:57:09.225Z,92550.75
2018-03-04T17:59:37.494Z,92551.95
2018-03-04T18:02:05.849Z,92552.67
2018-03-04T18:04:33.512Z,92558.33
2018-03-04T18:07:01.278Z,92571.62
2018-03-04T18:09:28.988Z,92564.55
2018-03-04T18:11:56.686Z,92561.42
2018-03-04T18:14:24.405Z,92567.20
2018-03-04T18:16:52.115Z,92559.11
2018-03-04T18:19:19.883Z,92552.52
2018-03-04T18:21:47.642Z,92554.16
2018-03-04T18:24:15.417Z,92553.12
2018-03-04T18:26:43.174Z,92561.75
2018-03-04T18:29:10.976Z,92559.78
2018-03-04T18:31:38.656Z,92554.70
2018-03-04T18:34:06.407Z,92554.63
2018-03-04T18:36:34.113Z,92555.07
2018-03-04T18:39:01.939Z,92563.38
2018-03-04T18:41:29.665Z,92552.84
2018-03-04T18:43:57.599Z,92556.63
2018-03-04T18:46:25.384Z,92560.27
2018-03-04T18:48:54.217Z,92555.80
2018-03-04T18:51:22.021Z,92557.13
2018-03-04T18:53:49.863Z,92558.42
2018-03-04T18:56:17.573Z,92555.56
2018-03-04T18:58:45.463Z,92550.64
2018-03-04T19:01:13.318Z,92561.33
2018-03-04T19:03:41.134Z,92566.34
2018-03-04T19:06:08.869Z,92562.53
2018-03-04T19:08:36.626Z,92562.91
2018-03-04T19:11:04.659Z,92566.24
2018-03-04T19:13:32.433Z,92563.47
2018-03-04T19:16:00.247Z,92567.30
2018-03-04T19:18:28.006Z,92573.98
2018-03-04T19:20:55.796Z,92581.84
2018-03-04T19:23:23.578Z,92576.03
2018-03-04T19:25:51.381Z,92578.40
2018-03-04T19:28:19.187Z,92575.88
2018-03-04T19:30:46.961Z,92574.63
2018-03-04T19:33:14.642Z,92570.20
2018-03-04T19:35:42.412Z,92565.86
2018-03-04T19:38:10.246Z,92574.10
2018-03-04T19:40:38.208Z,92571.28
2018-03-04T19:43:06.661Z,92575.63
2018-03-04T19:45:34.443Z,92576.11
2018-03-04T19:48:02.184Z,92573.44
2018-03-04T19:50:30.036Z,92573.47
2018-03-04T19:52:58.860Z,92579.05
2018-03-04T19:55:26.557Z,92587.95
2018-03-04T19:57:54.477Z,92592.77
2018-03-04T20:00:22.269Z,92588.64
2018-03-04T20:02:50.123Z,92596.29
2018-03-04T20:05:17.880Z,92599.23
2018-03-04T20:07:45.573Z,92594.14
2018-03-04T20:10:13.399Z,92586.67
2018-03-04T20:12:41.146Z,92592.53
2018-03-04T20:15:09.025Z,92593.04
2018-03-04T20:17:37.514Z,92596.22
2018-03-04T20:20:05.225Z,92596.27
2018-03-04T20:22:32.985Z,92598.48
2018-03-04T20:25:00.747Z,92595.02
2018-03-04T20:27:28.583Z,92591.77
2018-03-04T20:29:56.566Z,92590.77
2018-03-04T20:32:24.262Z,92585.85
2018-03-04T20:34:52.097Z,92596.92
2018-03-04T20:37:19.784Z,92601.48
2018-03-04T20:39:47.689Z,92614.03
2018-03-04T20:42:15.582Z,92615.80
2018-03-04T20:44:43.417Z,92603.98
2018-03-04T20:47:11.116Z,92611.08
2018-03-04T20:49:38.920Z,92607.47
2018-03-04T20:52:06.619Z,92600.97
2018-03-04T20:54:34.563Z,92595.61
2018-03-04T20:57:02.340Z,92601.57
2018-03-04T20:59:30.018Z,92606.59
2018-03-04T21:01:57.777Z,92609.25
2018-03-04T21:04:25.523Z,92617.02
2018-03-04T21:06:53.740Z,92619.09
2018-03-04T21:09:21.617Z,92618.10
2018-03-04T21:11:49.352Z,92618.46
2018-03-04T21:14:17.495Z,92619.80
2018-03-04T21:16:45.195Z,92627.88
2018-03-04T21:19:12.909Z,92623.00
2018-03-04T21:21:40.658Z,92619.61
2018-03-04T21:24:08.379Z,92618.23
2018-03-04T21:26:36.115Z,92618.44
2018-03-04T21:29:03.912Z,92616.48
2018-03-04T21:31:31.610Z,92606.74
2018-03-04T21:33:59.389Z,92605.83
2018-03-04T21:36:27.179Z,92613.20
2018-03-04T21:38:54.919Z,92598.91
2018-03-04T21:41:22.645Z,92598.66
2018-03-04T21:43:50.356Z,92597.58
2018-03-04T21:46:18.116Z,92589.05
2018-03-04T21:48:45.795Z,92597.34
2018-03-04T21:51:13.475Z,92596.77
2018-03-04T21:53:42.218Z,92595.27
2018-03-04T21:56:10.306Z,92599.95
2018-03-04T21:58:38.155Z,92598.09
2018-03-04T22:01:06.141Z,92597.30
2018-03-04T22:03:34.245Z,92591.66
2018-03-04T22:06:02.151Z,92592.58
2018-03-04T22:08:30.019Z,92597.49
2018-03-04T22:10:57.986Z,92588.90
2018-03-04T22:13:25.886Z,92592.68
2018-03-04T22:15:53.950Z,92591.01
2018-03-04T22:18:22.043Z,92589.44
2018-03-04T22:20:50.316Z,92594.55
2018-03-04T22:23:18.191Z,92591.99
2018-03-04T22:25:46.261Z,92587.41
2018-03-04T22:28:14.232Z,92591.53
2018-03-04T22:30:42.145Z,92592.62
2018-03-04T22:33:10.013Z,92596.65
2018-03-04T22:35:38.035Z,92596.06
2018-03-04T22:38:06.025Z,92601.08
2018-03-04T22:40:34.061Z,92603.36
2018-03-04T22:43:02.007Z,92606.31
2018-03-04T22:45:30.116Z,92602.96
2018-03-04T22:47:59.282Z,92604.36
2018-03-04T22:50:27.387Z,92603.77
2018-03-04T22:52:56.182Z,92608.47
2018-03-04T22:55:23.923Z,92608.05
2018-03-04T22:57:51.679Z,92609.06
2018-03-04T23:00:19.515Z,92599.33
2018-03-04T23:02:47.689Z,92599.52
2018-03-04T23:05:15.429Z,92604.66
2018-03-04T23:07:43.117Z,92603.47
2018-03-04T23:10:11.301Z,92611.93
2018-03-04T23:12:39.318Z,92605.34
2018-03-04T23:15:07.174Z,92602.38
2018-03-04T23:17:34.934Z,92612.61
2018-03-04T23:20:04.154Z,92611.12
2018-03-04T23:22:32.150Z,92605.63
2018-03-04T23:24:59.912Z,92603.06
2018-03-04T23:27:27.608Z,92605.72
2018-03-04T23:29:55.332Z,92603.16
2018-03-04T23:32:23.379Z,92604.27
2018-03-04T23:34:51.130Z,92610.89
2018-03-04T23:37:18.795Z,92615.84
2018-03-04T23:39:46.545Z,92614.57
2018-03-04T23:42:14.258Z,92610.93
2018-03-04T23:44:41.974Z,92618.11
2018-03-04T23:47:09.712Z,92622.05
2018-03-04T23:49:37.365Z,92622.20
2018-03-04T23:52:05.354Z,92618.02
2018-03-04T23:54:33.074Z,92619.20
2018-03-04T23:57:01.059Z,92612.60
2018-03-04T23:59:28.811Z,92621.42
